»·PEaware :: ASA250 KPDX-KSFO

ASA250 :: KPDX-KSFO

FLIGHT INFORMATION

Flight Status: Arrived
Operator:
Alaska Airlines
More flights by this operator :: More flights under this callsign
Pilot: Andrew J. (13363)
Aircraft: BOEING 737-800
(B738)
More flights by this aircraft type
Origin: KPDX Portland Intl
United States
Destination: KSFO San Francisco Intl
United States
More flights between these airports :: More routes between these airports
Route: +MINNE5 FAMUK Q3 FOWND MLBEC BDEGA3
File this flight plan on PilotEdge
Remarks:
Altitude:
(Current/Filed)
39,000ft
Speed:
(Current/Filed)
460kts
Departed: 11-Oct-18 06:28 PM
Arrived: 11-Oct-18 07:47 PM
Distance/Time
Traveled:
478nm/1:19
Distance/Time
To Go:
Arrived

Flight Plot

Page will automatically refresh every two minutes.

Flight plan parsing failed; only flown route is shown


Map Options




Map Legend


Flown Route
Filed Route
Departure Airport
Arrival Airport
Navaid (VOR, NDB)
Fix

Horizontal Profiles

Position Reports

Time Latitude Longitude Heading Altitude Ground
Speed
11-Oct-18 18:15 45.588611 -122.596935 5 23ft 0kts
11-Oct-18 18:16 45.588611 -122.596935 5 23ft 0kts
11-Oct-18 18:17 45.588611 -122.596935 5 23ft 0kts
11-Oct-18 18:18 45.588611 -122.596935 5 23ft 0kts
11-Oct-18 18:19 45.588611 -122.596935 5 23ft 0kts
11-Oct-18 18:20 45.588611 -122.596935 5 23ft 0kts
11-Oct-18 18:21 45.588457 -122.596954 5 23ft 2kts
11-Oct-18 18:22 45.587919 -122.597209 66 23ft 2kts
11-Oct-18 18:23 45.587954 -122.597641 119 23ft 0kts
11-Oct-18 18:24 45.587954 -122.597641 119 23ft 0kts
11-Oct-18 18:25 45.587954 -122.597641 119 23ft 0kts
11-Oct-18 18:26 45.586865 -122.594900 124 23ft 18kts
11-Oct-18 18:27 45.583073 -122.587244 117 23ft 26kts
11-Oct-18 18:28 45.581454 -122.583572 166 23ft 0kts
11-Oct-18 18:29 45.580637 -122.584165 291 23ft 2kts
11-Oct-18 18:30 45.591041 -122.611253 301 462ft 150kts
11-Oct-18 18:31 45.614305 -122.665570 304 2444ft 196kts
11-Oct-18 18:32 45.647559 -122.748271 290 5065ft 265kts
11-Oct-18 18:33 45.634060 -122.846776 231 8489ft 290kts
11-Oct-18 18:34 45.558075 -122.894247 189 11165ft 332kts
11-Oct-18 18:35 45.464179 -122.915265 189 14114ft 353kts
11-Oct-18 18:36 45.365177 -122.937214 189 16854ft 370kts
11-Oct-18 18:37 45.261587 -122.960082 189 19360ft 386kts
11-Oct-18 18:38 45.154153 -122.984490 190 21641ft 401kts
11-Oct-18 18:39 45.041839 -123.010806 189 23687ft 417kts
11-Oct-18 18:40 44.926118 -123.037761 187 25569ft 431kts
11-Oct-18 18:41 44.807629 -123.065161 188 27341ft 441kts
11-Oct-18 18:42 44.685066 -123.093377 188 28886ft 453kts
11-Oct-18 18:43 44.559653 -123.122132 188 30484ft 460kts
11-Oct-18 18:44 44.433133 -123.133965 176 32196ft 457kts
11-Oct-18 18:45 44.285478 -123.128426 176 34016ft 456kts
11-Oct-18 18:46 44.180353 -123.124659 176 35259ft 454kts
11-Oct-18 18:47 44.054823 -123.120217 176 36625ft 452kts
11-Oct-18 18:48 43.929435 -123.115842 176 37797ft 452kts
11-Oct-18 18:49 43.805262 -123.111530 176 38777ft 452kts
11-Oct-18 18:50 43.678519 -123.107105 176 39088ft 470kts
11-Oct-18 18:51 43.544598 -123.102453 176 39057ft 493kts
11-Oct-18 18:52 43.407634 -123.097740 176 39046ft 492kts
11-Oct-18 18:53 43.271288 -123.093019 176 39048ft 493kts
11-Oct-18 18:54 43.134379 -123.088275 176 39050ft 493kts
11-Oct-18 18:55 42.997864 -123.083562 176 39049ft 494kts
11-Oct-18 18:56 42.861150 -123.078899 173 39032ft 498kts
11-Oct-18 18:57 42.723408 -123.074098 173 39012ft 497kts
11-Oct-18 18:58 42.585406 -123.069291 173 39006ft 497kts
11-Oct-18 18:59 42.447562 -123.064536 173 39010ft 498kts
11-Oct-18 19:00 42.309197 -123.060100 173 39012ft 498kts
11-Oct-18 19:01 42.170866 -123.055684 173 39013ft 498kts
11-Oct-18 19:02 42.032765 -123.051286 173 39018ft 498kts
11-Oct-18 19:03 41.895297 -123.046905 173 39031ft 499kts
11-Oct-18 19:04 41.757665 -123.042526 173 39049ft 499kts
11-Oct-18 19:05 41.619270 -123.038119 173 39053ft 498kts
11-Oct-18 19:06 41.482311 -123.033747 174 39075ft 491kts
11-Oct-18 19:07 41.344027 -123.029328 174 39065ft 499kts
11-Oct-18 19:08 41.206233 -123.025254 174 39064ft 498kts
11-Oct-18 19:09 41.068343 -123.021249 174 39038ft 499kts
11-Oct-18 19:10 40.929769 -123.017318 172 38930ft 496kts
11-Oct-18 19:11 40.795343 -123.013383 172 38923ft 497kts
11-Oct-18 19:12 40.657649 -123.009374 172 38925ft 497kts
11-Oct-18 19:13 40.520148 -123.005394 172 38926ft 497kts
11-Oct-18 19:14 40.382471 -123.001426 172 38926ft 497kts
11-Oct-18 19:15 40.244758 -122.997472 172 38925ft 497kts
11-Oct-18 19:16 40.106484 -122.993517 172 38923ft 497kts
11-Oct-18 19:17 39.968744 -122.989600 172 38926ft 497kts
11-Oct-18 19:18 39.833119 -122.985758 172 38917ft 496kts
11-Oct-18 19:19 39.695458 -122.981868 172 38922ft 497kts
11-Oct-18 19:20 39.557531 -122.977994 172 38923ft 497kts
11-Oct-18 19:21 39.419580 -122.974132 172 38926ft 497kts
11-Oct-18 19:22 39.282276 -122.970306 172 38929ft 497kts
11-Oct-18 19:23 39.144464 -122.966477 172 38931ft 497kts
11-Oct-18 19:24 39.006691 -122.962653 172 38942ft 496kts
11-Oct-18 19:25 38.878666 -122.957774 167 36836ft 483kts
11-Oct-18 19:26 38.749726 -122.922003 161 33117ft 485kts
11-Oct-18 19:27 38.619440 -122.883516 162 29400ft 478kts
11-Oct-18 19:28 38.494516 -122.846789 162 27911ft 459kts
11-Oct-18 19:29 38.368255 -122.809610 162 25423ft 461kts
11-Oct-18 19:30 38.248271 -122.774589 163 22671ft 427kts
11-Oct-18 19:31 38.137083 -122.742229 163 20204ft 398kts
11-Oct-18 19:32 38.032930 -122.712002 163 17916ft 373kts
11-Oct-18 19:33 37.935012 -122.683657 163 15816ft 352kts
11-Oct-18 19:34 37.855423 -122.626149 137 13878ft 326kts
11-Oct-18 19:35 37.788016 -122.554972 137 12357ft 304kts
11-Oct-18 19:36 37.726119 -122.489162 130 10984ft 278kts
11-Oct-18 19:37 37.685380 -122.405580 113 10877ft 283kts
11-Oct-18 19:38 37.651394 -122.317498 113 9335ft 280kts
11-Oct-18 19:39 37.616984 -122.229703 113 7834ft 279kts
11-Oct-18 19:40 37.583295 -122.142472 113 5889ft 276kts
11-Oct-18 19:41 37.552260 -122.059421 113 5007ft 238kts
11-Oct-18 19:42 37.504114 -122.038326 239 4993ft 232kts
11-Oct-18 19:43 37.511079 -122.112737 298 4293ft 220kts
11-Oct-18 19:44 37.538901 -122.179759 299 3173ft 212kts
11-Oct-18 19:45 37.564115 -122.239549 298 2117ft 169kts
11-Oct-18 19:46 37.582267 -122.282670 297 1329ft 126kts
11-Oct-18 19:47 37.598567 -122.321476 296 680ft 124kts
11-Oct-18 19:48 37.614032 -122.358316 295 65ft 117kts
11-Oct-18 19:49 37.621198 -122.377174 231 20ft 15kts
11-Oct-18 19:50 37.619730 -122.379227 229 20ft 15kts
11-Oct-18 19:51 37.616405 -122.379841 277 20ft 3kts
11-Oct-18 19:52 37.616746 -122.380551 299 20ft 0kts

Navigation Log

Ident Type
Flight plan parsing failed, navigation log unavailable